Doris Moran — WRU2125 — position and weather

sailwx.info

Track history (hours):
 
Tides and Currents Weather Stations Pressure Air Temp Water Temp Dewpoint Dewpoint Depression Visibility Wind Speed Wind Dir Waves Ship Positions

Doris Moran

Owner: MORAN TOWING CORPORATION, New Canaan, CT. More information available from US FCC via Universal Licensing System and Coast Guard Vessel Documentation Center.

Last reported at 2015-Mar-27 04:33 UTC. Time now 2015-Mar-27 05:23 UTC.
Position N 40°38' W 074°08'.

Length 36 m; draft 5.3 m.

Type: Other ship. MMSI: 366939790.

Date/timePositionNaut miles runAvg speedWind from/ knotsBaromVisibWave heightAir tempDewpointWater temp
2015-Mar-27 04:33N 40°38' W 074°08'3 1.4
2015-Mar-27 02:33N 40°39' W 074°04'3 3.2
2015-Mar-27 01:33N 40°41' W 074°01'1 0.5
2015-Mar-27 00:33N 40°41' W 074°01'6 3.0
2015-Mar-26 22:33N 40°39' W 074°09'5 4.6
2015-Mar-26 21:33N 40°38' W 074°03'3 3.0
2015-Mar-26 20:33N 40°39' W 074°07'0 0.0
2015-Mar-26 19:33N 40°39' W 074°07'0 0.1
2015-Mar-26 18:33N 40°39' W 074°07'3 2.8
2015-Mar-26 17:33N 40°37' W 074°04'2 2.1
2015-Mar-26 16:34N 40°39' W 074°05'2 2.0
2015-Mar-26 15:32N 40°38' W 074°08'1 0.2
2015-Mar-26 09:33N 40°39' W 074°06'2 1.6
2015-Mar-26 08:27N 40°40' W 074°05'3 3.2
2015-Mar-26 07:33N 40°38' W 074°08'0 0.0
2015-Mar-26 06:31N 40°38' W 074°08'0 0.0
2015-Mar-26 05:31N 40°38' W 074°08'0 0.0
2015-Mar-26 04:26N 40°38' W 074°08'0 0.0
2015-Mar-26 03:33N 40°38' W 074°08'0 0.0
2015-Mar-26 02:28N 40°38' W 074°08'0 0.0
2015-Mar-26 01:33N 40°38' W 074°08'0 0.0
2015-Mar-26 00:33N 40°38' W 074°08'0 0.0
2015-Mar-25 23:33N 40°38' W 074°08'0 0.0
2015-Mar-25 22:33N 40°38' W 074°08'0 0.0
2015-Mar-25 21:33N 40°38' W 074°08'0 0.0
2015-Mar-25 20:33N 40°38' W 074°08'0 0.0
2015-Mar-25 19:33N 40°38' W 074°08'0 0.0
2015-Mar-25 18:32N 40°38' W 074°08'0 0.0
2015-Mar-25 16:17N 40°38' W 074°08'0 0.0
2015-Mar-25 15:29N 40°38' W 074°08'0 0.0
2015-Mar-25 14:12N 40°38' W 074°08'0 0.0
2015-Mar-25 13:28N 40°38' W 074°08'0 0.0
2015-Mar-25 12:33N 40°38' W 074°08'0 0.0
2015-Mar-25 11:33N 40°38' W 074°08'2 2.1
2015-Mar-25 10:33N 40°41' W 074°08'2 1.9
2015-Mar-25 09:33N 40°39' W 074°08'3 2.7
2015-Mar-25 08:33N 40°40' W 074°04'0 0.0
2015-Mar-25 07:33N 40°40' W 074°04'1 0.9
2015-Mar-25 06:33N 40°39' W 074°05'3 2.7
2015-Mar-25 05:33N 40°40' W 074°08'2 1.7
2015-Mar-25 04:33N 40°39' W 074°08'0 0.2
2015-Mar-25 03:33N 40°38' W 074°08'0 0.0
2015-Mar-25 02:33N 40°38' W 074°08'0 0.0
2015-Mar-25 01:33N 40°38' W 074°08'6 6.4
2015-Mar-25 00:33N 40°41' W 074°00'6 5.9
2015-Mar-24 23:33N 40°39' W 074°07'3 3.4
2015-Mar-24 22:33N 40°42' W 074°09'3 3.0
2015-Mar-24 21:27N 40°39' W 074°10'0 0.0
2015-Mar-24 20:16N 40°39' W 074°10'0 0.0
2015-Mar-24 19:29N 40°39' W 074°10'4 4.2
2015-Mar-24 18:31N 40°35' W 074°13'1 0.9
2015-Mar-24 17:17N 40°36' W 074°12'3 4.1
2015-Mar-24 16:31N 40°39' W 074°10'3 2.6
2015-Mar-24 15:33N 40°39' W 074°07'1 0.9
2015-Mar-24 14:33N 40°38' W 074°08'0 0.0
2015-Mar-24 13:33N 40°38' W 074°08'0 0.0
2015-Mar-24 12:33N 40°38' W 074°08'0 0.0
2015-Mar-24 11:33N 40°38' W 074°08'0 0.0
2015-Mar-24 10:33N 40°38' W 074°08'0 0.0
2015-Mar-24 09:33N 40°38' W 074°08'0 0.0
2015-Mar-24 08:33N 40°38' W 074°08'0 0.0
2015-Mar-24 07:33N 40°38' W 074°08'1 1.2
2015-Mar-24 06:33N 40°40' W 074°09'1 1.2
2015-Mar-24 05:33N 40°38' W 074°08'0 0.0
2015-Mar-24 04:33N 40°38' W 074°08'0 0.0
2015-Mar-24 03:33N 40°38' W 074°08'0 0.0
2015-Mar-24 02:33N 40°38' W 074°08'0 0.0
2015-Mar-24 01:33N 40°38' W 074°08'0 0.0
2015-Mar-24 00:33N 40°38' W 074°08'0 0.0
2015-Mar-23 23:33N 40°38' W 074°08'0 0.0
2015-Mar-23 22:33N 40°38' W 074°08'0 0.0
2015-Mar-23 21:33N 40°38' W 074°08'0 0.0
2015-Mar-23 20:33N 40°38' W 074°08'0 0.0
2015-Mar-23 19:33N 40°38' W 074°08'1 1.1
2015-Mar-23 18:33N 40°39' W 074°06'2 1.8
2015-Mar-23 17:32N 40°40' W 074°05'4 4.3
2015-Mar-23 16:33N 40°36' W 074°03'4 2.2
2015-Mar-23 14:33N 40°38' W 074°08'0 0.0
2015-Mar-23 13:26N 40°38' W 074°08'0 0.0
2015-Mar-23 12:33N 40°38' W 074°08'0 0.0
2015-Mar-23 11:33N 40°38' W 074°08'0 0.0
2015-Mar-23 10:28N 40°38' W 074°08'0 0.0
2015-Mar-23 09:31N 40°38' W 074°08'0 0.0
2015-Mar-23 08:33N 40°38' W 074°08'0 0.0
2015-Mar-23 07:15N 40°38' W 074°08'0 0.0
2015-Mar-23 04:16N 40°38' W 074°08'0 0.0
2015-Mar-22 20:04N 40°38' W 074°08'0 0.0
2015-Mar-22 19:30N 40°38' W 074°08'0 0.0
2015-Mar-22 17:22N 40°38' W 074°08'0 0.0
2015-Mar-22 16:05N 40°38' W 074°08'5 8.7
2015-Mar-22 15:33N 40°39' W 074°02'2 1.6
2015-Mar-22 14:33N 40°40' W 074°00'3 2.7
2015-Mar-22 13:34N 40°39' W 074°03'2 1.7
2015-Mar-22 12:33N 40°39' W 074°06'0 0.0
2015-Mar-22 11:33N 40°39' W 074°06'0 0.0
2015-Mar-22 10:33N 40°39' W 074°06'0 0.0
2015-Mar-22 09:33N 40°39' W 074°06'0 0.0
2015-Mar-22 08:33N 40°39' W 074°06'0 0.0
2015-Mar-22 07:33N 40°39' W 074°06'0 0.0
2015-Mar-22 06:33N 40°39' W 074°06'0 0.0
2015-Mar-22 05:33N 40°39' W 074°06'0 0.0
2015-Mar-22 04:33N 40°39' W 074°06'0 0.0
2015-Mar-22 03:33N 40°39' W 074°06'0 0.0
2015-Mar-22 02:33N 40°39' W 074°06'0 0.0
2015-Mar-22 01:33N 40°39' W 074°06'0 0.0
2015-Mar-22 00:33N 40°39' W 074°06'0 0.0
2015-Mar-21 23:33N 40°39' W 074°06'0 0.0
2015-Mar-21 22:33N 40°39' W 074°06'0 0.0
2015-Mar-21 21:33N 40°39' W 074°06'0 0.0
2015-Mar-21 20:33N 40°39' W 074°06'0 0.0
2015-Mar-21 19:33N 40°39' W 074°06'0 0.0
2015-Mar-21 18:33N 40°39' W 074°06'0 0.0
2015-Mar-21 17:33N 40°39' W 074°06'2 2.3
2015-Mar-21 16:33N 40°40' W 074°03'9 8.2
2015-Mar-21 15:29N 40°47' W 073°56'14 7.3
2015-Mar-21 13:33N 40°54' W 073°40'7 7.5
2015-Mar-21 12:33N 40°58' W 073°32'9 9.0
2015-Mar-21 11:33N 41°01' W 073°20'9 9.0
2015-Mar-21 10:33N 41°02' W 073°09'9 8.5
2015-Mar-21 09:34N 41°04' W 072°58'8 8.2
2015-Mar-21 08:34N 41°06' W 072°47'8 7.8
2015-Mar-21 07:33N 41°07' W 072°37'7 7.3
2015-Mar-21 06:33N 41°09' W 072°28'7 7.2
2015-Mar-21 05:34N 41°12' W 072°19'8 8.5
2015-Mar-21 04:34N 41°14' W 072°08'1010.0
2015-Mar-21 03:34N 41°15' W 071°55'1010.3
2015-Mar-21 02:34N 41°17' W 071°41'10 9.9
2015-Mar-21 01:34N 41°18' W 071°28'9 9.2
2015-Mar-21 00:34N 41°20' W 071°16'9 9.1
2015-Mar-20 23:33N 41°24' W 071°05'10 7.8
2015-Mar-20 22:20N 41°29' W 070°55'  
2015-Mar-17 11:27N 42°23' W 070°50'  
Track history (hours):
 
Tides and Currents Weather Stations Pressure Air Temp Water Temp Dewpoint Dewpoint Depression Visibility Wind Speed Wind Dir Waves Ship Positions

Doris Moran

Owner: MORAN TOWING CORPORATION, New Canaan, CT. More information available from US FCC via Universal Licensing System and Coast Guard Vessel Documentation Center.

Last reported at 2015-Mar-27 04:33 UTC. Time now 2015-Mar-27 05:23 UTC.
Position N 40°38' W 074°08'.

Length 36 m; draft 5.3 m.

Type: Other ship. MMSI: 366939790.

Date/timePositionNaut miles runAvg speedWind from/ knotsBaromVisibWave heightAir tempDewpointWater temp
2015-Mar-27 04:33N 40°38' W 074°08'3 1.4
2015-Mar-27 02:33N 40°39' W 074°04'3 3.2
2015-Mar-27 01:33N 40°41' W 074°01'1 0.5
2015-Mar-27 00:33N 40°41' W 074°01'6 3.0
2015-Mar-26 22:33N 40°39' W 074°09'5 4.6
2015-Mar-26 21:33N 40°38' W 074°03'3 3.0
2015-Mar-26 20:33N 40°39' W 074°07'0 0.0
2015-Mar-26 19:33N 40°39' W 074°07'0 0.1
2015-Mar-26 18:33N 40°39' W 074°07'3 2.8
2015-Mar-26 17:33N 40°37' W 074°04'2 2.1
2015-Mar-26 16:34N 40°39' W 074°05'2 2.0
2015-Mar-26 15:32N 40°38' W 074°08'1 0.2
2015-Mar-26 09:33N 40°39' W 074°06'2 1.6
2015-Mar-26 08:27N 40°40' W 074°05'3 3.2
2015-Mar-26 07:33N 40°38' W 074°08'0 0.0
2015-Mar-26 06:31N 40°38' W 074°08'0 0.0
2015-Mar-26 05:31N 40°38' W 074°08'0 0.0
2015-Mar-26 04:26N 40°38' W 074°08'0 0.0
2015-Mar-26 03:33N 40°38' W 074°08'0 0.0
2015-Mar-26 02:28N 40°38' W 074°08'0 0.0
2015-Mar-26 01:33N 40°38' W 074°08'0 0.0
2015-Mar-26 00:33N 40°38' W 074°08'0 0.0
2015-Mar-25 23:33N 40°38' W 074°08'0 0.0
2015-Mar-25 22:33N 40°38' W 074°08'0 0.0
2015-Mar-25 21:33N 40°38' W 074°08'0 0.0
2015-Mar-25 20:33N 40°38' W 074°08'0 0.0
2015-Mar-25 19:33N 40°38' W 074°08'0 0.0
2015-Mar-25 18:32N 40°38' W 074°08'0 0.0
2015-Mar-25 16:17N 40°38' W 074°08'0 0.0
2015-Mar-25 15:29N 40°38' W 074°08'0 0.0
2015-Mar-25 14:12N 40°38' W 074°08'0 0.0
2015-Mar-25 13:28N 40°38' W 074°08'0 0.0
2015-Mar-25 12:33N 40°38' W 074°08'0 0.0
2015-Mar-25 11:33N 40°38' W 074°08'2 2.1
2015-Mar-25 10:33N 40°41' W 074°08'2 1.9
2015-Mar-25 09:33N 40°39' W 074°08'3 2.7
2015-Mar-25 08:33N 40°40' W 074°04'0 0.0
2015-Mar-25 07:33N 40°40' W 074°04'1 0.9
2015-Mar-25 06:33N 40°39' W 074°05'3 2.7
2015-Mar-25 05:33N 40°40' W 074°08'2 1.7
2015-Mar-25 04:33N 40°39' W 074°08'0 0.2
2015-Mar-25 03:33N 40°38' W 074°08'0 0.0
2015-Mar-25 02:33N 40°38' W 074°08'0 0.0
2015-Mar-25 01:33N 40°38' W 074°08'6 6.4
2015-Mar-25 00:33N 40°41' W 074°00'6 5.9
2015-Mar-24 23:33N 40°39' W 074°07'3 3.4
2015-Mar-24 22:33N 40°42' W 074°09'3 3.0
2015-Mar-24 21:27N 40°39' W 074°10'0 0.0
2015-Mar-24 20:16N 40°39' W 074°10'0 0.0
2015-Mar-24 19:29N 40°39' W 074°10'4 4.2
2015-Mar-24 18:31N 40°35' W 074°13'1 0.9
2015-Mar-24 17:17N 40°36' W 074°12'3 4.1
2015-Mar-24 16:31N 40°39' W 074°10'3 2.6
2015-Mar-24 15:33N 40°39' W 074°07'1 0.9
2015-Mar-24 14:33N 40°38' W 074°08'0 0.0
2015-Mar-24 13:33N 40°38' W 074°08'0 0.0
2015-Mar-24 12:33N 40°38' W 074°08'0 0.0
2015-Mar-24 11:33N 40°38' W 074°08'0 0.0
2015-Mar-24 10:33N 40°38' W 074°08'0 0.0
2015-Mar-24 09:33N 40°38' W 074°08'0 0.0
2015-Mar-24 08:33N 40°38' W 074°08'0 0.0
2015-Mar-24 07:33N 40°38' W 074°08'1 1.2
2015-Mar-24 06:33N 40°40' W 074°09'1 1.2
2015-Mar-24 05:33N 40°38' W 074°08'0 0.0
2015-Mar-24 04:33N 40°38' W 074°08'0 0.0
2015-Mar-24 03:33N 40°38' W 074°08'0 0.0
2015-Mar-24 02:33N 40°38' W 074°08'0 0.0
2015-Mar-24 01:33N 40°38' W 074°08'0 0.0
2015-Mar-24 00:33N 40°38' W 074°08'0 0.0
2015-Mar-23 23:33N 40°38' W 074°08'0 0.0
2015-Mar-23 22:33N 40°38' W 074°08'0 0.0
2015-Mar-23 21:33N 40°38' W 074°08'0 0.0
2015-Mar-23 20:33N 40°38' W 074°08'0 0.0
2015-Mar-23 19:33N 40°38' W 074°08'1 1.1
2015-Mar-23 18:33N 40°39' W 074°06'2 1.8
2015-Mar-23 17:32N 40°40' W 074°05'4 4.3
2015-Mar-23 16:33N 40°36' W 074°03'4 2.2
2015-Mar-23 14:33N 40°38' W 074°08'0 0.0
2015-Mar-23 13:26N 40°38' W 074°08'0 0.0
2015-Mar-23 12:33N 40°38' W 074°08'0 0.0
2015-Mar-23 11:33N 40°38' W 074°08'0 0.0
2015-Mar-23 10:28N 40°38' W 074°08'0 0.0
2015-Mar-23 09:31N 40°38' W 074°08'0 0.0
2015-Mar-23 08:33N 40°38' W 074°08'0 0.0
2015-Mar-23 07:15N 40°38' W 074°08'0 0.0
2015-Mar-23 04:16N 40°38' W 074°08'0 0.0
2015-Mar-22 20:04N 40°38' W 074°08'0 0.0
2015-Mar-22 19:30N 40°38' W 074°08'0 0.0
2015-Mar-22 17:22N 40°38' W 074°08'0 0.0
2015-Mar-22 16:05N 40°38' W 074°08'5 8.7
2015-Mar-22 15:33N 40°39' W 074°02'2 1.6
2015-Mar-22 14:33N 40°40' W 074°00'3 2.7
2015-Mar-22 13:34N 40°39' W 074°03'2 1.7
2015-Mar-22 12:33N 40°39' W 074°06'0 0.0
2015-Mar-22 11:33N 40°39' W 074°06'0 0.0
2015-Mar-22 10:33N 40°39' W 074°06'0 0.0
2015-Mar-22 09:33N 40°39' W 074°06'0 0.0
2015-Mar-22 08:33N 40°39' W 074°06'0 0.0
2015-Mar-22 07:33N 40°39' W 074°06'0 0.0
2015-Mar-22 06:33N 40°39' W 074°06'0 0.0
2015-Mar-22 05:33N 40°39' W 074°06'0 0.0
2015-Mar-22 04:33N 40°39' W 074°06'0 0.0
2015-Mar-22 03:33N 40°39' W 074°06'0 0.0
2015-Mar-22 02:33N 40°39' W 074°06'0 0.0
2015-Mar-22 01:33N 40°39' W 074°06'0 0.0
2015-Mar-22 00:33N 40°39' W 074°06'0 0.0
2015-Mar-21 23:33N 40°39' W 074°06'0 0.0
2015-Mar-21 22:33N 40°39' W 074°06'0 0.0
2015-Mar-21 21:33N 40°39' W 074°06'0 0.0
2015-Mar-21 20:33N 40°39' W 074°06'0 0.0
2015-Mar-21 19:33N 40°39' W 074°06'0 0.0
2015-Mar-21 18:33N 40°39' W 074°06'0 0.0
2015-Mar-21 17:33N 40°39' W 074°06'2 2.3
2015-Mar-21 16:33N 40°40' W 074°03'9 8.2
2015-Mar-21 15:29N 40°47' W 073°56'14 7.3
2015-Mar-21 13:33N 40°54' W 073°40'7 7.5
2015-Mar-21 12:33N 40°58' W 073°32'9 9.0
2015-Mar-21 11:33N 41°01' W 073°20'9 9.0
2015-Mar-21 10:33N 41°02' W 073°09'9 8.5
2015-Mar-21 09:34N 41°04' W 072°58'8 8.2
2015-Mar-21 08:34N 41°06' W 072°47'8 7.8
2015-Mar-21 07:33N 41°07' W 072°37'7 7.3
2015-Mar-21 06:33N 41°09' W 072°28'7 7.2
2015-Mar-21 05:34N 41°12' W 072°19'8 8.5
2015-Mar-21 04:34N 41°14' W 072°08'1010.0
2015-Mar-21 03:34N 41°15' W 071°55'1010.3
2015-Mar-21 02:34N 41°17' W 071°41'10 9.9
2015-Mar-21 01:34N 41°18' W 071°28'9 9.2
2015-Mar-21 00:34N 41°20' W 071°16'9 9.1
2015-Mar-20 23:33N 41°24' W 071°05'10 7.8
2015-Mar-20 22:20N 41°29' W 070°55'  
2015-Mar-17 11:27N 42°23' W 070°50'  

Dump ship's entire track history